Time;durP1;ratioP1;P1;durP2;ratioP2;P2;SDS_P1;SDS_P2;PMS_P1;PMS_P2;Temp;Humidity;BMP_temperature;BMP_pressure;BME280_temperature;BME280_humidity;BME280_pressure;Samples;Min_cycle;Max_cycle;Signal;HPM_P1;HPM_P2
2020/12/05 00:04:22;;;;;;;77.80;44.83;;;;;;;;;;5035648;28;20435;-96
2020/12/05 00:06:48;;;;;;;79.93;44.47;;;;;;;;;;5030862;28;20470;-95
2020/12/05 00:09:14;;;;;;;83.93;46.63;;;;;;;;;;5029169;28;20518;-94
2020/12/05 00:11:42;;;;;;;93.20;49.80;;;;;;;;;;5025889;28;20440;-96
2020/12/05 00:14:08;;;;;;;96.10;50.63;;;;;;;;;;5025566;28;20483;-96
2020/12/05 00:16:34;;;;;;;101.17;52.20;;;;;;;;;;5026677;28;20462;-96
2020/12/05 00:19:00;;;;;;;94.77;48.83;;;;;;;;;;5025369;28;20564;-95
2020/12/05 00:21:27;;;;;;;92.17;50.20;;;;;;;;;;5027644;28;20444;-94
2020/12/05 00:23:53;;;;;;;97.63;52.13;;;;;;;;;;5025752;28;20456;-95
2020/12/05 00:26:20;;;;;;;96.03;49.60;;;;;;;;;;5026593;28;20471;-96
2020/12/05 00:28:49;;;;;;;91.70;48.80;;;;;;;;;;5030922;28;20448;-96
2020/12/05 00:31:20;;;;;;;99.43;50.90;;;;;;;;;;5034295;28;20455;-96
2020/12/05 00:37:04;;;;;;;88.57;48.67;;;;;;;;;;5018054;28;20480;-96
2020/12/05 00:39:36;;;;;;;95.13;48.53;;;;;;;;;;5020206;28;20453;-96
2020/12/05 00:45:04;;;;;;;99.70;49.10;;;;;;;;;;5036094;28;20452;-96
2020/12/05 00:47:32;;;;;;;87.07;47.30;;;;;;;;;;5014847;28;20444;-96
2020/12/05 00:49:59;;;;;;;93.67;48.53;;;;;;;;;;5013327;28;20488;-96
2020/12/05 00:52:25;;;;;;;84.97;45.73;;;;;;;;;;5029669;28;20456;-96
2020/12/05 00:54:57;;;;;;;87.77;47.47;;;;;;;;;;5015105;28;20487;-96
2020/12/05 00:57:23;;;;;;;78.90;44.83;;;;;;;;;;5031923;28;20528;-96
2020/12/05 00:59:51;;;;;;;76.67;43.07;;;;;;;;;;5028740;28;20531;-96
2020/12/05 01:02:17;;;;;;;74.90;42.00;;;;;;;;;;5007798;28;20554;-95
2020/12/05 01:04:44;;;;;;;75.37;41.70;;;;;;;;;;5025476;28;20801;-96
2020/12/05 01:07:10;;;;;;;74.60;43.67;;;;;;;;;;5027687;28;20535;-96
2020/12/05 01:09:37;;;;;;;82.57;46.93;;;;;;;;;;5032364;28;20801;-96
2020/12/05 01:12:11;;;;;;;80.20;45.13;;;;;;;;;;5035281;28;20478;-96
2020/12/05 01:14:37;;;;;;;86.13;47.47;;;;;;;;;;5035065;28;20543;-96
2020/12/05 01:17:04;;;;;;;82.77;46.57;;;;;;;;;;5032551;28;20440;-96
2020/12/05 01:19:31;;;;;;;100.87;49.37;;;;;;;;;;5030704;28;20480;-96
2020/12/05 01:22:01;;;;;;;85.70;45.13;;;;;;;;;;5016847;28;20462;-96
2020/12/05 01:24:29;;;;;;;82.40;46.37;;;;;;;;;;5018049;28;20498;-96
2020/12/05 01:27:01;;;;;;;81.20;46.53;;;;;;;;;;5036762;28;20539;-96
2020/12/05 01:29:30;;;;;;;91.80;48.00;;;;;;;;;;5036073;28;20468;-96
2020/12/05 01:32:01;;;;;;;78.43;44.80;;;;;;;;;;5035194;28;20463;-96
2020/12/05 01:34:28;;;;;;;100.57;46.07;;;;;;;;;;5012658;28;20512;-96
2020/12/05 01:37:02;;;;;;;89.77;48.60;;;;;;;;;;5032360;28;20486;-96
2020/12/05 01:39:31;;;;;;;75.90;43.70;;;;;;;;;;5035028;28;20807;-96
2020/12/05 01:41:58;;;;;;;69.73;42.27;;;;;;;;;;5032831;28;20563;-96
2020/12/05 01:44:29;;;;;;;66.30;40.70;;;;;;;;;;5033740;28;20471;-96
2020/12/05 01:46:57;;;;;;;65.70;41.00;;;;;;;;;;5034632;28;20444;-96
2020/12/05 01:49:24;;;;;;;81.83;42.93;;;;;;;;;;5033159;28;20452;-96
2020/12/05 01:52:05;;;;;;;58.17;36.50;;;;;;;;;;5012209;28;20523;-96
2020/12/05 01:54:36;;;;;;;61.67;37.17;;;;;;;;;;5035105;28;20476;-96
2020/12/05 01:57:04;;;;;;;61.97;39.23;;;;;;;;;;5031307;28;20582;-96
2020/12/05 01:59:30;;;;;;;69.47;38.57;;;;;;;;;;5032066;28;20460;-96
2020/12/05 02:02:00;;;;;;;72.90;39.77;;;;;;;;;;5029874;28;20547;-96
2020/12/05 02:04:29;;;;;;;76.20;42.93;;;;;;;;;;5011955;28;20503;-96
2020/12/05 02:07:30;;;;;;;75.33;42.37;;;;;;;;;;5014895;28;20464;-96
2020/12/05 02:10:00;;;;;;;91.53;44.20;;;;;;;;;;5033861;28;20987;-96
2020/12/05 02:12:32;;;;;;;73.80;41.33;;;;;;;;;;5032386;28;20792;-96
2020/12/05 02:15:09;;;;;;;65.17;36.87;;;;;;;;;;5034498;28;20455;-96
2020/12/05 02:17:48;;;;;;;78.07;42.83;;;;;;;;;;5034167;28;20455;-96
2020/12/05 02:20:14;;;;;;;68.30;38.00;;;;;;;;;;5029729;28;20467;-96
2020/12/05 02:22:43;;;;;;;74.60;39.40;;;;;;;;;;5031126;28;20853;-96
2020/12/05 02:25:14;;;;;;;93.80;42.63;;;;;;;;;;5027380;28;20479;-96
2020/12/05 02:27:42;;;;;;;86.97;44.97;;;;;;;;;;5031561;28;20448;-96
2020/12/05 02:30:10;;;;;;;104.33;46.73;;;;;;;;;;5028597;28;20466;-96
2020/12/05 02:32:36;;;;;;;79.70;40.00;;;;;;;;;;5010087;28;20486;-96
2020/12/05 02:35:03;;;;;;;96.73;42.70;;;;;;;;;;5025971;28;20877;-96
2020/12/05 02:37:30;;;;;;;68.17;37.60;;;;;;;;;;5028655;28;20479;-96
2020/12/05 02:39:57;;;;;;;74.57;39.37;;;;;;;;;;5029096;28;20539;-96
2020/12/05 02:42:24;;;;;;;73.97;39.80;;;;;;;;;;5030870;28;20551;-96
2020/12/05 02:44:51;;;;;;;63.83;36.50;;;;;;;;;;5032622;28;20468;-96
2020/12/05 02:47:27;;;;;;;64.23;36.40;;;;;;;;;;5036960;28;20419;-96
2020/12/05 02:49:54;;;;;;;60.27;36.27;;;;;;;;;;5037710;28;20447;-95
2020/12/05 02:52:31;;;;;;;56.67;34.67;;;;;;;;;;5036763;28;20460;-96
2020/12/05 03:01:05;;;;;;;57.77;34.33;;;;;;;;;;5022264;28;20463;-96
2020/12/05 03:03:45;;;;;;;61.00;36.30;;;;;;;;;;5073778;23;20473;-96
2020/12/05 03:06:13;;;;;;;60.50;36.50;;;;;;;;;;5038322;28;20423;-96
2020/12/05 03:08:41;;;;;;;57.17;33.93;;;;;;;;;;5033656;28;20449;-96
2020/12/05 03:11:28;;;;;;;52.10;31.70;;;;;;;;;;5075393;28;20445;-96
2020/12/05 03:14:09;;;;;;;52.13;32.80;;;;;;;;;;5068498;28;20436;-96
2020/12/05 03:16:39;;;;;;;51.40;32.40;;;;;;;;;;5034234;28;20458;-96
2020/12/05 03:19:05;;;;;;;64.67;37.77;;;;;;;;;;5034403;28;20458;-96
2020/12/05 03:21:32;;;;;;;66.50;34.50;;;;;;;;;;5029873;28;20459;-96
2020/12/05 03:23:58;;;;;;;54.87;32.57;;;;;;;;;;5048304;28;20493;-96
2020/12/05 03:29:07;;;;;;;66.47;37.10;;;;;;;;;;5040018;28;20541;-96
2020/12/05 03:31:44;;;;;;;56.83;33.03;;;;;;;;;;5050152;28;20481;-96
2020/12/05 03:34:11;;;;;;;54.27;31.13;;;;;;;;;;5049290;28;20452;-96
2020/12/05 03:36:38;;;;;;;63.17;34.10;;;;;;;;;;5048012;28;20470;-96
2020/12/05 03:39:04;;;;;;;68.97;34.30;;;;;;;;;;5054661;28;20458;-96
2020/12/05 03:41:30;;;;;;;68.70;35.90;;;;;;;;;;5050642;28;20518;-96
2020/12/05 03:43:56;;;;;;;80.60;38.63;;;;;;;;;;5043644;28;20513;-96
2020/12/05 03:46:23;;;;;;;75.90;41.03;;;;;;;;;;5042901;28;20473;-96
2020/12/05 03:48:49;;;;;;;84.53;42.70;;;;;;;;;;5041631;28;20830;-96
2020/12/05 03:51:19;;;;;;;107.80;45.30;;;;;;;;;;5046615;28;20459;-96
2020/12/05 03:53:46;;;;;;;87.13;40.70;;;;;;;;;;5035825;28;20498;-96
2020/12/05 03:56:14;;;;;;;70.17;36.97;;;;;;;;;;5010251;28;20455;-96
2020/12/05 03:58:40;;;;;;;61.77;35.20;;;;;;;;;;5035199;28;20534;-96
2020/12/05 04:01:06;;;;;;;50.20;31.47;;;;;;;;;;5044186;28;20551;-96
2020/12/05 04:03:33;;;;;;;56.50;32.53;;;;;;;;;;5039605;28;20567;-96
2020/12/05 04:05:59;;;;;;;51.90;31.60;;;;;;;;;;5026523;28;20527;-96
2020/12/05 04:08:26;;;;;;;51.67;31.23;;;;;;;;;;5041668;28;20457;-96
2020/12/05 04:10:52;;;;;;;45.60;30.00;;;;;;;;;;5045415;28;20514;-96
2020/12/05 04:13:19;;;;;;;48.37;31.00;;;;;;;;;;5050485;28;20450;-96
2020/12/05 04:15:45;;;;;;;64.53;33.57;;;;;;;;;;5029394;28;20460;-96
2020/12/05 04:18:11;;;;;;;61.23;35.57;;;;;;;;;;5040858;28;20469;-96
2020/12/05 04:20:37;;;;;;;71.27;36.20;;;;;;;;;;5043529;28;20455;-96
2020/12/05 04:23:06;;;;;;;69.50;36.50;;;;;;;;;;5051275;28;20490;-96
2020/12/05 04:25:34;;;;;;;80.23;38.70;;;;;;;;;;5046533;28;20487;-96
2020/12/05 04:28:00;;;;;;;78.10;38.00;;;;;;;;;;5050194;28;20459;-96
2020/12/05 04:30:26;;;;;;;77.13;38.07;;;;;;;;;;5049368;28;20470;-96
2020/12/05 04:32:54;;;;;;;85.10;39.00;;;;;;;;;;5048014;28;20459;-96
2020/12/05 04:35:21;;;;;;;82.73;40.30;;;;;;;;;;5054293;28;20447;-96
2020/12/05 04:37:47;;;;;;;81.50;40.07;;;;;;;;;;5022697;28;20555;-96
2020/12/05 04:40:14;;;;;;;77.23;37.53;;;;;;;;;;5029898;28;20511;-96
2020/12/05 04:42:44;;;;;;;95.87;46.07;;;;;;;;;;5032879;28;20546;-96
2020/12/05 04:45:12;;;;;;;100.43;42.30;;;;;;;;;;5051031;28;20466;-96
2020/12/05 04:47:39;;;;;;;101.37;44.77;;;;;;;;;;5051347;28;20723;-96
2020/12/05 04:50:08;;;;;;;82.07;40.87;;;;;;;;;;5051881;28;20522;-96
2020/12/05 04:52:44;;;;;;;61.90;36.33;;;;;;;;;;5032425;28;20451;-96
2020/12/05 04:55:10;;;;;;;62.00;35.97;;;;;;;;;;5030887;28;20523;-96
2020/12/05 04:57:38;;;;;;;53.70;33.53;;;;;;;;;;5047263;28;20534;-96
2020/12/05 05:00:06;;;;;;;66.77;34.97;;;;;;;;;;5046745;28;20453;-96
2020/12/05 05:02:36;;;;;;;65.20;37.30;;;;;;;;;;5056856;28;20482;-96
2020/12/05 05:05:02;;;;;;;67.50;36.20;;;;;;;;;;5041859;28;20548;-96
2020/12/05 05:07:29;;;;;;;66.13;36.10;;;;;;;;;;5045931;28;20481;-96
2020/12/05 05:10:09;;;;;;;74.47;38.00;;;;;;;;;;5048037;28;20480;-96
2020/12/05 05:12:39;;;;;;;112.33;47.63;;;;;;;;;;5052690;28;20533;-96
2020/12/05 05:15:28;;;;;;;98.73;45.97;;;;;;;;;;5053114;28;20445;-96
2020/12/05 05:18:10;;;;;;;93.30;41.90;;;;;;;;;;5037354;28;20450;-96
2020/12/05 05:20:44;;;;;;;86.03;42.40;;;;;;;;;;5036435;28;20479;-96
2020/12/05 05:23:19;;;;;;;87.53;41.90;;;;;;;;;;5031814;28;20479;-96
2020/12/05 05:25:50;;;;;;;95.83;41.97;;;;;;;;;;5038068;28;20458;-96
2020/12/05 05:28:28;;;;;;;75.87;39.97;;;;;;;;;;5047751;28;20466;-96
2020/12/05 05:30:57;;;;;;;78.40;39.00;;;;;;;;;;5049581;28;20522;-96
2020/12/05 05:33:24;;;;;;;88.87;42.37;;;;;;;;;;5049647;28;20462;-96
2020/12/05 05:35:52;;;;;;;101.00;46.97;;;;;;;;;;5052365;28;20459;-96
2020/12/05 05:38:25;;;;;;;107.03;46.03;;;;;;;;;;5040797;28;20471;-96
2020/12/05 05:40:56;;;;;;;100.00;42.23;;;;;;;;;;5017425;28;20535;-96
2020/12/05 05:43:25;;;;;;;93.37;43.37;;;;;;;;;;5038682;28;20491;-96
2020/12/05 05:46:42;;;;;;;94.37;42.80;;;;;;;;;;5053055;28;20439;-96
2020/12/05 05:49:10;;;;;;;90.83;41.30;;;;;;;;;;5033946;28;20463;-96
2020/12/05 05:51:41;;;;;;;103.37;47.53;;;;;;;;;;5036716;28;20465;-96
2020/12/05 05:54:27;;;;;;;99.30;48.50;;;;;;;;;;5051579;28;20494;-96
2020/12/05 05:57:15;;;;;;;123.60;48.87;;;;;;;;;;5055323;28;20443;-96
2020/12/05 05:59:56;;;;;;;95.17;45.80;;;;;;;;;;5048919;28;20451;-96
2020/12/05 06:02:42;;;;;;;107.10;46.03;;;;;;;;;;5036190;28;20498;-96
2020/12/05 06:05:22;;;;;;;102.77;55.10;;;;;;;;;;5053831;28;20486;-96
2020/12/05 06:07:54;;;;;;;110.10;52.57;;;;;;;;;;5053216;28;20509;-96
2020/12/05 06:13:19;;;;;;;105.50;52.30;;;;;;;;;;5053461;28;20443;-95
2020/12/05 06:18:41;;;;;;;80.67;43.43;;;;;;;;;;5051998;28;20427;-96
2020/12/05 06:21:09;;;;;;;103.20;49.70;;;;;;;;;;5049860;28;20515;-96
2020/12/05 06:23:39;;;;;;;100.37;46.77;;;;;;;;;;5017621;28;20495;-96
2020/12/05 06:26:08;;;;;;;105.10;50.83;;;;;;;;;;5046964;28;20454;-96
2020/12/05 06:28:40;;;;;;;93.57;48.60;;;;;;;;;;5046261;28;20562;-96
2020/12/05 06:31:11;;;;;;;113.30;53.07;;;;;;;;;;5049893;28;20447;-96
2020/12/05 06:33:57;;;;;;;138.37;66.43;;;;;;;;;;5058558;28;20493;-96
2020/12/05 06:36:37;;;;;;;124.13;63.77;;;;;;;;;;5070914;28;20454;-96
2020/12/05 06:42:20;;;;;;;115.40;61.97;;;;;;;;;;5048800;28;20451;-96
2020/12/05 06:47:43;;;;;;;92.83;55.90;;;;;;;;;;5037009;28;20427;-96
2020/12/05 06:53:28;;;;;;;67.10;41.67;;;;;;;;;;5054775;28;20489;-96
2020/12/05 06:56:08;;;;;;;71.87;42.57;;;;;;;;;;5056408;28;20462;-96
2020/12/05 06:58:38;;;;;;;66.37;41.33;;;;;;;;;;5174698;23;20506;-96
2020/12/05 07:01:15;;;;;;;61.97;42.23;;;;;;;;;;5016730;28;20491;-96
2020/12/05 07:06:27;;;;;;;70.63;41.60;;;;;;;;;;5019092;28;20433;-96
2020/12/05 07:09:12;;;;;;;67.50;42.67;;;;;;;;;;4998801;28;20465;-96
2020/12/05 07:11:40;;;;;;;66.43;40.97;;;;;;;;;;5018897;28;20440;-96
2020/12/05 07:14:11;;;;;;;72.93;42.03;;;;;;;;;;5034194;28;20882;-96
2020/12/05 07:16:40;;;;;;;66.67;42.90;;;;;;;;;;5026778;28;20428;-96
2020/12/05 07:19:07;;;;;;;73.17;43.63;;;;;;;;;;5013170;28;20463;-96
2020/12/05 07:21:47;;;;;;;76.97;45.23;;;;;;;;;;5013267;28;21338;-97
2020/12/05 07:27:01;;;;;;;80.27;45.93;;;;;;;;;;5017046;28;20440;-96
2020/12/05 07:29:27;;;;;;;80.30;48.17;;;;;;;;;;5032424;28;20452;-96
2020/12/05 07:32:05;;;;;;;82.67;46.13;;;;;;;;;;5032559;28;20481;-96
2020/12/05 07:34:34;;;;;;;77.57;46.30;;;;;;;;;;5026515;28;21131;-96
2020/12/05 07:37:00;;;;;;;81.73;48.47;;;;;;;;;;5019720;28;20471;-96
2020/12/05 07:39:27;;;;;;;86.90;50.37;;;;;;;;;;5018259;28;20448;-96
2020/12/05 07:41:54;;;;;;;88.03;53.10;;;;;;;;;;5019300;28;20456;-96
2020/12/05 07:44:20;;;;;;;105.70;60.13;;;;;;;;;;5012446;28;20569;-95
2020/12/05 07:46:46;;;;;;;101.80;61.63;;;;;;;;;;5000833;28;20457;-96
2020/12/05 07:49:12;;;;;;;97.67;57.00;;;;;;;;;;5011532;28;20459;-96
2020/12/05 07:51:39;;;;;;;81.87;49.70;;;;;;;;;;5025461;28;20471;-96
2020/12/05 07:54:09;;;;;;;80.50;49.90;;;;;;;;;;5025811;28;20444;-96
2020/12/05 07:56:36;;;;;;;70.93;46.87;;;;;;;;;;5024199;28;20440;-96
2020/12/05 07:59:03;;;;;;;72.60;46.90;;;;;;;;;;5031730;28;20478;-96
2020/12/05 08:01:56;;;;;;;71.87;48.10;;;;;;;;;;5029181;28;20470;-95
2020/12/05 08:04:43;;;;;;;95.67;56.73;;;;;;;;;;5026581;28;20487;-96
2020/12/05 08:07:24;;;;;;;76.80;49.30;;;;;;;;;;5024139;28;20455;-96
2020/12/05 08:09:52;;;;;;;82.13;50.43;;;;;;;;;;5029351;28;20470;-96
2020/12/05 08:12:25;;;;;;;86.00;51.30;;;;;;;;;;5028562;28;20459;-96
2020/12/05 08:14:52;;;;;;;94.73;53.23;;;;;;;;;;5027962;28;20451;-96
2020/12/05 08:17:22;;;;;;;84.43;51.67;;;;;;;;;;5034890;28;20450;-96
2020/12/05 08:22:30;;;;;;;73.40;47.30;;;;;;;;;;5030498;28;20455;-94
2020/12/05 08:24:57;;;;;;;75.83;45.30;;;;;;;;;;5031992;28;20475;-95
2020/12/05 08:27:24;;;;;;;73.50;46.33;;;;;;;;;;5030041;28;21498;-96
2020/12/05 08:29:51;;;;;;;74.30;47.03;;;;;;;;;;5028296;28;20467;-96
2020/12/05 08:32:18;;;;;;;75.33;47.80;;;;;;;;;;5026737;28;20447;-96
2020/12/05 08:34:44;;;;;;;84.23;50.77;;;;;;;;;;5023377;28;20448;-96
2020/12/05 08:37:23;;;;;;;83.77;51.07;;;;;;;;;;5032324;28;20440;-96
2020/12/05 08:39:51;;;;;;;75.00;48.00;;;;;;;;;;5031879;28;20486;-96
2020/12/05 08:42:22;;;;;;;72.77;47.37;;;;;;;;;;5030987;28;20483;-96
2020/12/05 08:44:56;;;;;;;74.00;48.03;;;;;;;;;;5029501;28;20440;-96
2020/12/05 08:47:24;;;;;;;69.17;47.30;;;;;;;;;;5027743;28;20447;-96
2020/12/05 08:49:51;;;;;;;75.07;49.70;;;;;;;;;;5028700;28;20447;-96
2020/12/05 08:52:19;;;;;;;75.83;48.43;;;;;;;;;;5028780;28;20576;-96
2020/12/05 08:54:46;;;;;;;79.23;47.70;;;;;;;;;;5027449;28;20464;-96
2020/12/05 08:57:19;;;;;;;78.47;48.03;;;;;;;;;;5033790;28;20463;-96
2020/12/05 08:59:46;;;;;;;69.50;43.80;;;;;;;;;;5044398;28;20553;-96
2020/12/05 09:02:17;;;;;;;74.07;45.77;;;;;;;;;;5032124;28;20572;-96
2020/12/05 09:04:44;;;;;;;77.47;47.10;;;;;;;;;;5013385;28;20487;-96
2020/12/05 09:07:10;;;;;;;71.50;45.73;;;;;;;;;;5028856;28;20523;-96
2020/12/05 09:09:37;;;;;;;69.37;42.27;;;;;;;;;;5031660;28;20453;-96
2020/12/05 09:12:05;;;;;;;64.43;43.23;;;;;;;;;;5030944;28;20474;-96
2020/12/05 09:14:32;;;;;;;58.20;38.83;;;;;;;;;;5032158;28;20493;-96
2020/12/05 09:16:58;;;;;;;62.07;39.93;;;;;;;;;;5026677;28;20446;-96
2020/12/05 09:19:27;;;;;;;55.77;37.60;;;;;;;;;;5044693;28;20449;-96
2020/12/05 09:21:55;;;;;;;45.63;33.30;;;;;;;;;;5047919;28;20473;-96
2020/12/05 09:24:21;;;;;;;56.50;35.77;;;;;;;;;;5028990;28;20645;-96
2020/12/05 09:26:52;;;;;;;59.03;38.40;;;;;;;;;;5030933;28;20458;-96
2020/12/05 09:29:18;;;;;;;58.63;38.93;;;;;;;;;;5033761;28;20488;-96
2020/12/05 09:31:48;;;;;;;52.53;36.63;;;;;;;;;;5030097;28;20775;-95
2020/12/05 09:34:14;;;;;;;50.80;33.80;;;;;;;;;;5027396;28;20462;-96
2020/12/05 09:42:36;;;;;;;53.60;37.77;;;;;;;;;;5028152;28;20481;-96
2020/12/05 09:45:08;;;;;;;55.17;38.33;;;;;;;;;;5033352;28;20429;-96
2020/12/05 09:47:35;;;;;;;53.83;35.47;;;;;;;;;;5031132;28;20499;-96
2020/12/05 09:50:01;;;;;;;49.20;35.23;;;;;;;;;;5027870;28;20450;-96
2020/12/05 09:52:27;;;;;;;51.90;34.60;;;;;;;;;;5028147;28;20454;-96
2020/12/05 09:54:53;;;;;;;48.47;33.57;;;;;;;;;;5011761;28;20454;-96
2020/12/05 09:57:19;;;;;;;46.60;31.93;;;;;;;;;;5043101;28;20458;-96
2020/12/05 09:59:47;;;;;;;39.07;29.53;;;;;;;;;;5056428;28;20587;-96
2020/12/05 10:02:13;;;;;;;49.07;33.57;;;;;;;;;;5039016;28;20509;-96
2020/12/05 10:04:39;;;;;;;50.00;33.57;;;;;;;;;;5034755;28;20481;-96
2020/12/05 10:07:05;;;;;;;39.43;29.53;;;;;;;;;;5020939;28;20470;-96
2020/12/05 10:09:32;;;;;;;46.00;30.73;;;;;;;;;;5006125;28;20456;-96
2020/12/05 10:11:58;;;;;;;46.40;32.50;;;;;;;;;;5010127;28;20460;-96
2020/12/05 10:14:24;;;;;;;45.70;32.43;;;;;;;;;;5025621;28;20516;-95
2020/12/05 10:16:51;;;;;;;45.00;33.63;;;;;;;;;;5026579;28;20450;-96
2020/12/05 10:19:17;;;;;;;50.90;36.70;;;;;;;;;;5023400;28;20453;-95
2020/12/05 10:21:45;;;;;;;52.03;35.13;;;;;;;;;;5030787;28;20447;-95
2020/12/05 10:24:11;;;;;;;49.73;34.13;;;;;;;;;;5035009;28;20486;-96
2020/12/05 10:26:37;;;;;;;57.13;37.00;;;;;;;;;;5037540;28;20480;-95
2020/12/05 10:29:03;;;;;;;54.53;37.60;;;;;;;;;;5029686;28;20454;-95
2020/12/05 10:31:29;;;;;;;51.60;35.87;;;;;;;;;;5023582;28;20453;-96
2020/12/05 10:33:56;;;;;;;53.03;37.10;;;;;;;;;;5022103;28;20455;-96
2020/12/05 10:36:22;;;;;;;48.93;35.43;;;;;;;;;;5035582;28;20493;-96
2020/12/05 10:38:48;;;;;;;51.20;35.23;;;;;;;;;;5042969;28;20449;-96
2020/12/05 10:41:15;;;;;;;50.03;37.27;;;;;;;;;;5021242;28;20460;-96
2020/12/05 10:43:42;;;;;;;50.03;35.70;;;;;;;;;;5023765;28;20483;-95
2020/12/05 10:46:08;;;;;;;55.10;37.27;;;;;;;;;;5010100;28;20588;-96
2020/12/05 10:48:34;;;;;;;49.87;37.60;;;;;;;;;;5007319;28;20445;-96
2020/12/05 10:51:02;;;;;;;52.90;37.67;;;;;;;;;;5019200;28;20451;-96
2020/12/05 10:53:28;;;;;;;53.10;36.97;;;;;;;;;;5028937;28;20437;-96
2020/12/05 10:56:07;;;;;;;55.33;38.20;;;;;;;;;;5044684;28;20445;-96
2020/12/05 10:58:39;;;;;;;57.93;38.93;;;;;;;;;;5034896;28;20463;-96
2020/12/05 11:01:08;;;;;;;59.17;38.57;;;;;;;;;;5011891;28;20472;-96
2020/12/05 11:03:34;;;;;;;57.73;41.07;;;;;;;;;;5026853;28;20488;-96
2020/12/05 11:06:01;;;;;;;54.93;40.00;;;;;;;;;;5028773;28;20453;-96
2020/12/05 11:08:27;;;;;;;59.20;39.13;;;;;;;;;;5027058;28;20460;-96
2020/12/05 11:10:53;;;;;;;63.67;41.80;;;;;;;;;;5025344;28;20972;-96
2020/12/05 11:13:20;;;;;;;57.90;41.83;;;;;;;;;;5023875;28;20481;-96
2020/12/05 11:15:46;;;;;;;57.63;40.40;;;;;;;;;;5025229;28;20463;-96
2020/12/05 11:18:12;;;;;;;56.57;39.50;;;;;;;;;;5023603;28;20554;-96
2020/12/05 11:20:38;;;;;;;53.40;37.40;;;;;;;;;;5024415;28;20466;-96
2020/12/05 11:23:05;;;;;;;58.00;39.73;;;;;;;;;;5027687;28;20485;-96
2020/12/05 11:25:31;;;;;;;61.47;38.90;;;;;;;;;;5042033;28;20968;-96
2020/12/05 11:27:57;;;;;;;55.77;39.00;;;;;;;;;;5047873;28;20468;-96
2020/12/05 11:30:24;;;;;;;56.13;40.30;;;;;;;;;;5029727;28;20466;-96
2020/12/05 11:32:51;;;;;;;59.27;40.20;;;;;;;;;;5031264;28;20460;-96
2020/12/05 11:35:18;;;;;;;55.40;38.83;;;;;;;;;;5027855;28;20470;-96
2020/12/05 11:37:44;;;;;;;57.57;39.50;;;;;;;;;;5030558;28;20464;-96
2020/12/05 11:40:13;;;;;;;54.80;37.10;;;;;;;;;;5029759;28;20477;-96
2020/12/05 11:42:39;;;;;;;53.17;40.37;;;;;;;;;;5028821;28;20509;-96
2020/12/05 11:45:06;;;;;;;55.47;38.10;;;;;;;;;;5027616;28;20562;-95
2020/12/05 11:47:34;;;;;;;54.17;37.07;;;;;;;;;;5035643;28;20471;-96
2020/12/05 11:50:00;;;;;;;54.00;37.77;;;;;;;;;;5033264;28;21173;-96
2020/12/05 11:52:26;;;;;;;55.93;40.57;;;;;;;;;;5030128;28;20490;-96
2020/12/05 11:54:53;;;;;;;58.60;39.23;;;;;;;;;;5033485;28;20464;-96
2020/12/05 11:57:32;;;;;;;50.33;37.20;;;;;;;;;;5032464;28;20447;-96
2020/12/05 12:00:06;;;;;;;57.03;38.77;;;;;;;;;;5036784;28;20516;-96
2020/12/05 12:02:32;;;;;;;52.80;39.83;;;;;;;;;;5032602;28;20536;-95
2020/12/05 12:04:58;;;;;;;55.90;39.40;;;;;;;;;;5052426;28;20530;-94
2020/12/05 12:07:25;;;;;;;58.57;40.30;;;;;;;;;;5051638;28;20479;-94
2020/12/05 12:09:51;;;;;;;56.80;41.97;;;;;;;;;;5017840;28;20464;-96
2020/12/05 12:12:18;;;;;;;62.43;42.87;;;;;;;;;;5032198;28;20462;-96
2020/12/05 12:14:45;;;;;;;60.90;41.90;;;;;;;;;;5030595;28;20495;-96
2020/12/05 12:17:12;;;;;;;63.70;43.93;;;;;;;;;;5031838;28;20466;-95
2020/12/05 12:19:38;;;;;;;60.20;44.33;;;;;;;;;;5028382;28;20455;-94
2020/12/05 12:22:05;;;;;;;60.50;43.13;;;;;;;;;;5036639;28;20463;-96
2020/12/05 12:24:32;;;;;;;59.70;43.70;;;;;;;;;;5036966;28;20487;-95
2020/12/05 12:27:00;;;;;;;59.60;42.27;;;;;;;;;;5013965;28;20482;-96
2020/12/05 12:29:26;;;;;;;59.47;43.20;;;;;;;;;;5028274;28;20464;-96
2020/12/05 12:31:54;;;;;;;59.20;41.63;;;;;;;;;;5030014;28;20484;-95
2020/12/05 12:34:21;;;;;;;58.27;42.23;;;;;;;;;;5008871;28;20461;-96
2020/12/05 12:36:47;;;;;;;57.00;41.10;;;;;;;;;;5029153;28;20474;-96
2020/12/05 12:39:13;;;;;;;58.83;42.20;;;;;;;;;;5029487;28;20535;-94
2020/12/05 12:41:41;;;;;;;59.50;42.60;;;;;;;;;;5032473;28;20463;-96
2020/12/05 12:44:12;;;;;;;56.80;43.07;;;;;;;;;;5051127;28;21011;-95
2020/12/05 12:46:52;;;;;;;55.20;40.23;;;;;;;;;;5040546;28;20456;-96
2020/12/05 12:49:21;;;;;;;63.17;42.77;;;;;;;;;;5034452;28;20436;-95
2020/12/05 12:51:47;;;;;;;59.13;42.40;;;;;;;;;;5026775;28;20468;-94
2020/12/05 12:54:15;;;;;;;53.60;38.90;;;;;;;;;;5025258;28;20444;-95
2020/12/05 12:56:41;;;;;;;64.47;41.27;;;;;;;;;;5006964;28;20446;-94
2020/12/05 12:59:07;;;;;;;54.40;40.10;;;;;;;;;;5022909;28;20551;-93
2020/12/05 13:01:43;;;;;;;53.40;38.70;;;;;;;;;;5021721;28;20472;-95
2020/12/05 13:04:09;;;;;;;60.37;42.33;;;;;;;;;;5027260;28;20520;-96
2020/12/05 13:06:36;;;;;;;57.50;42.47;;;;;;;;;;5009266;28;20457;-95
2020/12/05 13:09:02;;;;;;;57.23;39.97;;;;;;;;;;5018662;28;20455;-94
2020/12/05 13:11:28;;;;;;;55.07;40.00;;;;;;;;;;5039546;28;20483;-95
2020/12/05 13:13:55;;;;;;;61.87;40.90;;;;;;;;;;5033834;28;20456;-95
2020/12/05 13:16:21;;;;;;;59.83;41.43;;;;;;;;;;5025521;28;20452;-94
2020/12/05 13:18:47;;;;;;;59.70;41.97;;;;;;;;;;5025645;28;20472;-95
2020/12/05 13:21:18;;;;;;;59.70;42.70;;;;;;;;;;5037882;28;20459;-94
2020/12/05 13:23:45;;;;;;;65.87;44.73;;;;;;;;;;5047892;28;20486;-95
2020/12/05 13:26:11;;;;;;;57.80;43.07;;;;;;;;;;5030206;28;20438;-96
2020/12/05 13:28:38;;;;;;;60.00;42.47;;;;;;;;;;5025237;28;20767;-94
2020/12/05 13:31:04;;;;;;;57.53;42.70;;;;;;;;;;5020103;28;20471;-95
2020/12/05 13:33:30;;;;;;;62.37;45.80;;;;;;;;;;5024490;28;20464;-95
2020/12/05 13:35:56;;;;;;;65.80;44.20;;;;;;;;;;5024912;28;20450;-94
2020/12/05 13:38:22;;;;;;;64.07;46.67;;;;;;;;;;5012214;28;20477;-94
2020/12/05 13:41:02;;;;;;;67.27;48.00;;;;;;;;;;5014905;28;20472;-94
2020/12/05 13:43:29;;;;;;;68.67;48.37;;;;;;;;;;5025586;28;20487;-94
2020/12/05 13:45:55;;;;;;;68.60;47.07;;;;;;;;;;5017265;28;20456;-94
2020/12/05 13:48:21;;;;;;;71.90;47.37;;;;;;;;;;5021441;28;20444;-94
2020/12/05 13:50:48;;;;;;;65.10;47.90;;;;;;;;;;5025392;28;20473;-95
2020/12/05 13:53:14;;;;;;;77.17;50.53;;;;;;;;;;5026966;28;20448;-94
2020/12/05 13:55:40;;;;;;;71.07;48.30;;;;;;;;;;5025477;28;20470;-94
2020/12/05 13:58:07;;;;;;;74.80;50.50;;;;;;;;;;5018027;28;20456;-94
2020/12/05 14:00:33;;;;;;;70.47;47.77;;;;;;;;;;5021549;28;20488;-95
2020/12/05 14:02:59;;;;;;;68.63;47.40;;;;;;;;;;5018689;28;20470;-94
2020/12/05 14:05:26;;;;;;;76.77;50.03;;;;;;;;;;5021528;28;20491;-94
2020/12/05 14:07:52;;;;;;;65.03;48.57;;;;;;;;;;5021612;28;20451;-94
2020/12/05 14:10:18;;;;;;;62.90;44.87;;;;;;;;;;5014501;28;20483;-95
2020/12/05 14:12:44;;;;;;;69.67;47.60;;;;;;;;;;5020198;28;20458;-95
2020/12/05 14:15:11;;;;;;;65.10;45.37;;;;;;;;;;5016081;28;20483;-95
2020/12/05 14:17:37;;;;;;;63.67;45.57;;;;;;;;;;5022317;28;20451;-96
2020/12/05 14:20:03;;;;;;;66.60;44.13;;;;;;;;;;5027268;28;20476;-94
2020/12/05 14:22:29;;;;;;;62.63;44.30;;;;;;;;;;5003387;28;20452;-95
2020/12/05 14:24:55;;;;;;;60.83;44.37;;;;;;;;;;5004891;28;20494;-95
2020/12/05 14:27:21;;;;;;;58.90;41.07;;;;;;;;;;5024195;28;20455;-95
2020/12/05 14:29:49;;;;;;;48.90;37.00;;;;;;;;;;5025472;28;20478;-95
2020/12/05 14:32:16;;;;;;;48.40;35.97;;;;;;;;;;5021472;28;20447;-95
2020/12/05 14:34:42;;;;;;;44.33;33.27;;;;;;;;;;5025942;28;20452;-94
2020/12/05 14:37:08;;;;;;;49.40;35.70;;;;;;;;;;5021431;28;20452;-95
2020/12/05 14:39:34;;;;;;;55.80;41.30;;;;;;;;;;5023732;28;20467;-96
2020/12/05 14:42:00;;;;;;;65.00;45.90;;;;;;;;;;5032418;23;20494;-94
2020/12/05 14:47:39;;;;;;;74.20;50.47;;;;;;;;;;4994677;28;20416;-96
2020/12/05 14:53:02;;;;;;;75.83;53.27;;;;;;;;;;5056060;28;20470;-96
2020/12/05 14:58:36;;;;;;;85.97;55.43;;;;;;;;;;5023752;28;20449;-95
2020/12/05 15:03:55;;;;;;;84.53;56.60;;;;;;;;;;5073758;22;20550;-96
2020/12/05 15:06:21;;;;;;;81.87;55.50;;;;;;;;;;5018054;28;20444;-95
2020/12/05 15:08:48;;;;;;;84.07;58.00;;;;;;;;;;5035109;28;20701;-96
2020/12/05 15:11:15;;;;;;;86.03;60.87;;;;;;;;;;5039536;28;20515;-95
2020/12/05 15:16:14;;;;;;;85.80;56.27;;;;;;;;;;5087816;23;20503;-96
2020/12/05 15:18:41;;;;;;;95.13;62.70;;;;;;;;;;5048270;28;20474;-95
2020/12/05 15:21:08;;;;;;;90.07;60.33;;;;;;;;;;5054236;28;20546;-96
2020/12/05 15:23:43;;;;;;;83.57;57.10;;;;;;;;;;5032300;28;20534;-96
2020/12/05 15:26:14;;;;;;;64.70;48.57;;;;;;;;;;5065228;23;20518;-96
2020/12/05 15:31:33;;;;;;;88.30;55.40;;;;;;;;;;5014117;28;20462;-96